Time;durP1;ratioP1;P1;durP2;ratioP2;P2;SDS_P1;SDS_P2;PMS_P1;PMS_P2;Temp;Humidity;BMP_temperature;BMP_pressure;BME280_temperature;BME280_humidity;BME280_pressure;Samples;Min_cycle;Max_cycle;Signal;HPM_P1;HPM_P2
2020/12/14 00:02:05;;;;;;;1.57;0.90;;;;;;;;;;5011953;28;20038;-75
2020/12/14 00:04:30;;;;;;;1.30;0.80;;;;;;;;;;4999404;28;20034;-76
2020/12/14 00:06:55;;;;;;;1.40;0.80;;;;;;;;;;4999811;28;20280;-78
2020/12/14 00:09:23;;;;;;;1.40;0.80;;;;;;;;;;5002250;28;20117;-77
2020/12/14 00:11:51;;;;;;;1.00;0.77;;;;;;;;;;4980556;28;20034;-75
2020/12/14 00:14:16;;;;;;;0.90;0.70;;;;;;;;;;5007640;28;20044;-75
2020/12/14 00:16:42;;;;;;;1.87;0.83;;;;;;;;;;5015493;28;20117;-76
2020/12/14 00:19:07;;;;;;;1.57;0.80;;;;;;;;;;4999319;28;20032;-75
2020/12/14 00:21:33;;;;;;;1.30;0.80;;;;;;;;;;5013144;28;20030;-76
2020/12/14 00:23:58;;;;;;;1.83;0.80;;;;;;;;;;4997535;28;20169;-78
2020/12/14 00:26:23;;;;;;;1.63;0.90;;;;;;;;;;4996661;28;20112;-75
2020/12/14 00:28:49;;;;;;;0.90;0.67;;;;;;;;;;4979893;28;20069;-76
2020/12/14 00:31:15;;;;;;;2.03;1.00;;;;;;;;;;5011730;28;20076;-76
2020/12/14 00:33:41;;;;;;;1.48;0.70;;;;;;;;;;4992166;28;20419;-75
2020/12/14 00:36:08;;;;;;;1.10;0.80;;;;;;;;;;4996558;28;20105;-76
2020/12/14 00:38:33;;;;;;;1.85;0.70;;;;;;;;;;4995917;28;20045;-82
2020/12/14 00:40:58;;;;;;;1.47;0.77;;;;;;;;;;4997085;28;20489;-75
2020/12/14 00:43:24;;;;;;;1.73;0.80;;;;;;;;;;4997083;28;20157;-76
2020/12/14 00:45:49;;;;;;;1.60;0.80;;;;;;;;;;4998195;28;20061;-75
2020/12/14 00:48:14;;;;;;;1.47;0.90;;;;;;;;;;5005315;28;20057;-75
2020/12/14 00:50:39;;;;;;;1.43;0.80;;;;;;;;;;5015241;28;20057;-76
2020/12/14 00:53:05;;;;;;;2.33;1.00;;;;;;;;;;5014857;28;20056;-76
2020/12/14 00:55:30;;;;;;;1.53;1.00;;;;;;;;;;5009185;28;20062;-76
2020/12/14 00:57:56;;;;;;;1.00;0.70;;;;;;;;;;4996806;28;20501;-76
2020/12/14 01:00:21;;;;;;;1.17;0.70;;;;;;;;;;4995637;28;21288;-76
2020/12/14 01:02:47;;;;;;;1.30;0.80;;;;;;;;;;4996958;28;20430;-75
2020/12/14 01:05:12;;;;;;;1.00;0.80;;;;;;;;;;5014516;28;20049;-76
2020/12/14 01:07:37;;;;;;;1.60;0.80;;;;;;;;;;5014995;28;20044;-76
2020/12/14 01:10:02;;;;;;;1.50;0.70;;;;;;;;;;4998380;28;20056;-75
2020/12/14 01:12:28;;;;;;;0.90;0.77;;;;;;;;;;5000620;28;20054;-77
2020/12/14 01:14:53;;;;;;;1.57;0.93;;;;;;;;;;5013366;28;20049;-76
2020/12/14 01:17:18;;;;;;;1.00;0.70;;;;;;;;;;5013865;28;20072;-76
2020/12/14 01:19:44;;;;;;;1.20;0.80;;;;;;;;;;4999460;28;20066;-81
2020/12/14 01:22:09;;;;;;;1.30;1.00;;;;;;;;;;4995200;28;20038;-75
2020/12/14 01:24:34;;;;;;;2.17;0.80;;;;;;;;;;4996391;28;20089;-76
2020/12/14 01:27:00;;;;;;;1.80;0.73;;;;;;;;;;4966658;28;20026;-75
2020/12/14 01:29:25;;;;;;;1.77;0.80;;;;;;;;;;4995061;28;20106;-75
2020/12/14 01:31:50;;;;;;;1.17;0.80;;;;;;;;;;5015994;28;20056;-77
2020/12/14 01:34:16;;;;;;;1.77;0.80;;;;;;;;;;5015843;28;20039;-76
2020/12/14 01:36:41;;;;;;;1.23;0.90;;;;;;;;;;5014860;28;20041;-75
2020/12/14 01:39:06;;;;;;;1.07;0.80;;;;;;;;;;5014003;28;20461;-76
2020/12/14 01:41:32;;;;;;;1.27;0.70;;;;;;;;;;5013992;28;20037;-75
2020/12/14 01:43:57;;;;;;;1.37;0.90;;;;;;;;;;4997423;28;20072;-75
2020/12/14 01:46:29;;;;;;;1.20;0.77;;;;;;;;;;4978540;28;20113;-78
2020/12/14 01:49:00;;;;;;;1.00;0.80;;;;;;;;;;4963288;28;20034;-76
2020/12/14 01:51:31;;;;;;;1.27;0.90;;;;;;;;;;4994646;28;20105;-75
2020/12/14 01:53:57;;;;;;;1.17;0.82;;;;;;;;;;4994683;28;20102;-75
2020/12/14 01:56:23;;;;;;;1.23;0.80;;;;;;;;;;4985946;28;20018;-76
2020/12/14 01:58:49;;;;;;;2.03;0.80;;;;;;;;;;5013837;28;20036;-75
2020/12/14 02:01:15;;;;;;;1.95;0.80;;;;;;;;;;4997270;28;20052;-76
2020/12/14 02:03:40;;;;;;;0.97;0.80;;;;;;;;;;5013491;28;20508;-77
2020/12/14 02:06:05;;;;;;;1.00;0.70;;;;;;;;;;5014930;28;20440;-74
2020/12/14 02:08:31;;;;;;;1.13;0.80;;;;;;;;;;4997610;28;20457;-77
2020/12/14 02:10:56;;;;;;;1.20;0.80;;;;;;;;;;5016162;28;20037;-75
2020/12/14 02:13:21;;;;;;;1.10;0.90;;;;;;;;;;4996977;28;20057;-76
2020/12/14 02:15:46;;;;;;;1.80;0.73;;;;;;;;;;4975372;28;20053;-78
2020/12/14 02:18:12;;;;;;;1.77;0.97;;;;;;;;;;5015291;28;20114;-75
2020/12/14 02:20:37;;;;;;;1.30;0.80;;;;;;;;;;5014476;28;20037;-74
2020/12/14 02:23:02;;;;;;;1.40;0.90;;;;;;;;;;4996708;28;20030;-75
2020/12/14 02:25:28;;;;;;;0.90;0.80;;;;;;;;;;5007041;28;20057;-77
2020/12/14 02:27:53;;;;;;;1.37;0.80;;;;;;;;;;4997178;28;20030;-75
2020/12/14 02:30:18;;;;;;;1.27;0.90;;;;;;;;;;5015794;28;20496;-75
2020/12/14 02:32:44;;;;;;;1.20;0.80;;;;;;;;;;4993974;28;20096;-74
2020/12/14 02:35:09;;;;;;;1.33;0.80;;;;;;;;;;4995060;28;20054;-76
2020/12/14 02:37:34;;;;;;;1.37;0.90;;;;;;;;;;4993781;28;20153;-76
2020/12/14 02:40:00;;;;;;;1.30;0.80;;;;;;;;;;4993533;28;20034;-76
2020/12/14 02:42:25;;;;;;;0.87;0.70;;;;;;;;;;4993711;28;20030;-74
2020/12/14 02:44:51;;;;;;;1.23;0.83;;;;;;;;;;4998791;28;20463;-76
2020/12/14 02:47:16;;;;;;;1.07;0.70;;;;;;;;;;4996497;28;20029;-76
2020/12/14 02:49:42;;;;;;;1.10;0.80;;;;;;;;;;4980274;28;20147;-76
2020/12/14 02:52:08;;;;;;;1.33;0.77;;;;;;;;;;5013001;28;20377;-76
2020/12/14 02:54:35;;;;;;;1.50;1.00;;;;;;;;;;4996463;28;20038;-76
2020/12/14 02:57:00;;;;;;;1.42;1.05;;;;;;;;;;4989683;28;20377;-77
2020/12/14 02:59:25;;;;;;;1.10;0.80;;;;;;;;;;4981628;28;20026;-76
2020/12/14 03:01:51;;;;;;;1.40;0.90;;;;;;;;;;4993102;28;20069;-76
2020/12/14 03:04:17;;;;;;;1.27;0.80;;;;;;;;;;4977065;28;20117;-76
2020/12/14 03:06:44;;;;;;;1.15;0.90;;;;;;;;;;4977222;28;20034;-75
2020/12/14 03:09:09;;;;;;;1.80;0.80;;;;;;;;;;4994621;28;20030;-75
2020/12/14 03:11:34;;;;;;;2.07;0.90;;;;;;;;;;5008001;28;20036;-78
2020/12/14 03:14:00;;;;;;;1.20;0.80;;;;;;;;;;5011899;28;20488;-76
2020/12/14 03:16:25;;;;;;;1.13;0.80;;;;;;;;;;5000473;28;20034;-76
2020/12/14 03:18:50;;;;;;;1.17;0.70;;;;;;;;;;4993037;28;20113;-76
2020/12/14 03:21:16;;;;;;;2.63;0.80;;;;;;;;;;5008273;28;20116;-76
2020/12/14 03:23:41;;;;;;;0.97;0.70;;;;;;;;;;5012370;28;20054;-76
2020/12/14 03:26:06;;;;;;;1.23;0.73;;;;;;;;;;4999640;28;20057;-76
2020/12/14 03:28:32;;;;;;;1.20;0.80;;;;;;;;;;4995702;28;20090;-76
2020/12/14 03:30:57;;;;;;;1.10;0.80;;;;;;;;;;4976714;28;20108;-76
2020/12/14 03:33:22;;;;;;;1.57;0.90;;;;;;;;;;4992868;28;20065;-76
2020/12/14 03:35:48;;;;;;;0.80;0.70;;;;;;;;;;4994967;28;20026;-76
2020/12/14 03:38:14;;;;;;;1.00;0.80;;;;;;;;;;5011325;28;20065;-77
2020/12/14 03:40:39;;;;;;;;;;;;;;;;;;4996089;28;20384;-76
2020/12/14 03:43:05;;;;;;;1.35;0.90;;;;;;;;;;5013303;28;19917;-76
2020/12/14 03:45:30;;;;;;;0.97;0.70;;;;;;;;;;5012384;28;20061;-75
2020/12/14 03:47:56;;;;;;;0.80;0.70;;;;;;;;;;4988395;28;20051;-75
2020/12/14 03:50:21;;;;;;;1.83;0.90;;;;;;;;;;5008824;28;20105;-76
2020/12/14 03:52:47;;;;;;;1.33;0.80;;;;;;;;;;4993891;28;20054;-76
2020/12/14 03:55:13;;;;;;;1.00;0.70;;;;;;;;;;5022326;28;20068;-76
2020/12/14 03:57:38;;;;;;;0.73;0.70;;;;;;;;;;5012015;28;20048;-76
2020/12/14 04:00:04;;;;;;;1.00;0.70;;;;;;;;;;5011294;28;20545;-76
2020/12/14 04:02:29;;;;;;;1.42;0.70;;;;;;;;;;4997114;28;20457;-75
2020/12/14 04:04:54;;;;;;;1.47;1.00;;;;;;;;;;4976920;28;20490;-78
2020/12/14 04:07:20;;;;;;;0.97;0.80;;;;;;;;;;4993108;28;20033;-75
2020/12/14 04:09:45;;;;;;;1.23;0.80;;;;;;;;;;4992463;28;20370;-76
2020/12/14 04:12:11;;;;;;;1.93;0.80;;;;;;;;;;4992666;28;20081;-75
2020/12/14 04:14:36;;;;;;;1.47;0.80;;;;;;;;;;4994609;28;20057;-76
2020/12/14 04:17:01;;;;;;;1.53;0.70;;;;;;;;;;4994938;28;20070;-76
2020/12/14 04:19:27;;;;;;;0.70;0.70;;;;;;;;;;4993561;28;20116;-76
2020/12/14 04:21:52;;;;;;;0.97;0.70;;;;;;;;;;4992945;28;20049;-76
2020/12/14 04:24:18;;;;;;;1.05;0.70;;;;;;;;;;4992300;28;20064;-75
2020/12/14 04:26:43;;;;;;;1.00;0.70;;;;;;;;;;5010689;28;20119;-76
2020/12/14 04:29:09;;;;;;;1.97;0.80;;;;;;;;;;5004810;28;20025;-77
2020/12/14 04:31:34;;;;;;;0.97;0.70;;;;;;;;;;4976009;28;20026;-76
2020/12/14 04:34:00;;;;;;;1.10;0.70;;;;;;;;;;4960011;28;20029;-77
2020/12/14 04:36:25;;;;;;;0.80;0.65;;;;;;;;;;4992050;28;20066;-76
2020/12/14 04:38:51;;;;;;;1.30;0.80;;;;;;;;;;5002593;28;20092;-76
2020/12/14 04:41:16;;;;;;;0.73;0.60;;;;;;;;;;5011400;28;20061;-76
2020/12/14 04:43:41;;;;;;;1.63;0.60;;;;;;;;;;4996076;28;20030;-76
2020/12/14 04:46:07;;;;;;;1.10;0.70;;;;;;;;;;4976110;28;20113;-75
2020/12/14 04:48:32;;;;;;;0.80;0.60;;;;;;;;;;4976104;28;20034;-75
2020/12/14 04:50:58;;;;;;;1.33;0.77;;;;;;;;;;4993356;28;20034;-76
2020/12/14 04:53:23;;;;;;;0.80;0.60;;;;;;;;;;4979533;28;20030;-76
2020/12/14 04:55:48;;;;;;;0.83;0.70;;;;;;;;;;5002605;28;20050;-77
2020/12/14 04:58:14;;;;;;;0.80;0.70;;;;;;;;;;5008644;28;20054;-77
2020/12/14 05:00:39;;;;;;;1.27;0.70;;;;;;;;;;5026994;23;20123;-80
2020/12/14 05:03:04;;;;;;;0.73;0.60;;;;;;;;;;5017437;28;20062;-79
2020/12/14 05:05:30;;;;;;;1.37;0.90;;;;;;;;;;5001572;28;20057;-80
2020/12/14 05:07:56;;;;;;;1.05;0.60;;;;;;;;;;5000000;28;20034;-79
2020/12/14 05:10:25;;;;;;;1.02;0.70;;;;;;;;;;4983251;28;20069;-81
2020/12/14 05:12:51;;;;;;;0.82;0.60;;;;;;;;;;5015427;28;20030;-81
2020/12/14 05:15:26;;;;;;;1.10;0.70;;;;;;;;;;5035735;28;20064;-80
2020/12/14 05:18:07;;;;;;;1.05;0.60;;;;;;;;;;5000405;28;20026;-80
2020/12/14 05:20:32;;;;;;;1.20;0.80;;;;;;;;;;5003595;28;20053;-80
2020/12/14 05:22:59;;;;;;;1.00;0.70;;;;;;;;;;5002786;28;20040;-79
2020/12/14 05:25:24;;;;;;;0.93;0.70;;;;;;;;;;5011078;28;20473;-79
2020/12/14 05:28:05;;;;;;;0.70;0.50;;;;;;;;;;5005863;28;20036;-81
2020/12/14 05:30:41;;;;;;;0.80;0.60;;;;;;;;;;5034527;28;20499;-81
2020/12/14 05:33:07;;;;;;;1.15;0.70;;;;;;;;;;5012372;28;20096;-78
2020/12/14 05:35:37;;;;;;;1.33;0.60;;;;;;;;;;5014126;28;20034;-78
2020/12/14 05:38:12;;;;;;;0.82;0.57;;;;;;;;;;5033232;28;20433;-79
2020/12/14 05:40:38;;;;;;;0.88;0.63;;;;;;;;;;5019446;28;20059;-79
2020/12/14 05:43:13;;;;;;;0.70;0.60;;;;;;;;;;5021839;28;20464;-81
2020/12/14 05:45:39;;;;;;;1.95;0.70;;;;;;;;;;5014477;28;20403;-79
2020/12/14 05:48:05;;;;;;;1.00;0.60;;;;;;;;;;4999475;28;20022;-79
2020/12/14 05:50:30;;;;;;;2.83;0.60;;;;;;;;;;5000166;28;20152;-82
2020/12/14 05:52:55;;;;;;;2.20;0.70;;;;;;;;;;5020129;28;20072;-81
2020/12/14 05:55:21;;;;;;;2.63;0.60;;;;;;;;;;5005088;28;20025;-78
2020/12/14 05:57:48;;;;;;;1.25;0.50;;;;;;;;;;4985407;28;20029;-81
2020/12/14 06:00:14;;;;;;;1.10;0.70;;;;;;;;;;5014621;28;20032;-78
2020/12/14 06:02:39;;;;;;;3.03;0.80;;;;;;;;;;5016821;28;20069;-79
2020/12/14 06:05:05;;;;;;;1.03;0.60;;;;;;;;;;5017606;28;20065;-78
2020/12/14 06:07:31;;;;;;;1.13;0.70;;;;;;;;;;5020351;28;20033;-79
2020/12/14 06:10:10;;;;;;;1.73;0.60;;;;;;;;;;5015767;28;20029;-78
2020/12/14 06:12:44;;;;;;;1.17;0.60;;;;;;;;;;5003559;28;20030;-79
2020/12/14 06:15:12;;;;;;;2.42;0.60;;;;;;;;;;5015039;28;20034;-78
2020/12/14 06:17:37;;;;;;;0.90;0.52;;;;;;;;;;5033930;28;20079;-79
2020/12/14 06:20:14;;;;;;;2.03;0.60;;;;;;;;;;5000872;28;20021;-80
2020/12/14 06:22:44;;;;;;;0.43;0.43;;;;;;;;;;5014792;28;20563;-79
2020/12/14 06:25:10;;;;;;;3.65;0.80;;;;;;;;;;5003717;28;20112;-79
2020/12/14 06:27:35;;;;;;;0.63;0.50;;;;;;;;;;5018059;28;20112;-79
2020/12/14 06:30:00;;;;;;;1.37;0.60;;;;;;;;;;5017158;28;20113;-80
2020/12/14 06:32:37;;;;;;;0.80;0.60;;;;;;;;;;5033002;28;20488;-79
2020/12/14 06:35:07;;;;;;;1.00;0.50;;;;;;;;;;5018154;28;20025;-79
2020/12/14 06:37:53;;;;;;;1.38;0.70;;;;;;;;;;5001831;28;20091;-79
2020/12/14 06:40:18;;;;;;;1.10;0.50;;;;;;;;;;5015343;28;20045;-79
2020/12/14 06:42:44;;;;;;;1.70;0.63;;;;;;;;;;5014633;28;20041;-78
2020/12/14 06:45:10;;;;;;;1.27;0.60;;;;;;;;;;5013704;28;20118;-80
2020/12/14 06:47:49;;;;;;;1.98;0.57;;;;;;;;;;5009191;28;20040;-77
2020/12/14 06:50:40;;;;;;;1.25;0.50;;;;;;;;;;5032629;28;20487;-79
2020/12/14 06:53:38;;;;;;;0.88;0.57;;;;;;;;;;5027091;28;20040;-80
2020/12/14 06:56:03;;;;;;;4.22;0.70;;;;;;;;;;5032893;28;20044;-82
2020/12/14 06:58:32;;;;;;;3.00;0.50;;;;;;;;;;5001416;28;20045;-79
2020/12/14 07:00:57;;;;;;;2.05;0.68;;;;;;;;;;5003841;28;20029;-87
2020/12/14 07:03:49;;;;;;;4.70;0.87;;;;;;;;;;5013401;28;20040;-88
2020/12/14 07:06:14;;;;;;;3.47;0.80;;;;;;;;;;5017795;28;20491;-81
2020/12/14 07:08:41;;;;;;;4.70;0.77;;;;;;;;;;5016840;28;20041;-80
2020/12/14 07:11:13;;;;;;;;;;;;;;;;;;5002975;28;20032;-80
2020/12/14 07:13:38;;;;;;;3.88;0.85;;;;;;;;;;5033525;28;19917;-80
2020/12/14 07:16:08;;;;;;;7.23;0.80;;;;;;;;;;5014959;28;20053;-80
2020/12/14 07:18:33;;;;;;;1.92;0.85;;;;;;;;;;5010034;28;20033;-80
2020/12/14 07:21:08;;;;;;;3.03;0.80;;;;;;;;;;5000205;28;20554;-82
2020/12/14 07:23:38;;;;;;;1.65;0.68;;;;;;;;;;5015037;28;20030;-79
2020/12/14 07:26:03;;;;;;;3.67;0.90;;;;;;;;;;4997393;28;20396;-79
2020/12/14 07:28:43;;;;;;;4.10;0.83;;;;;;;;;;4997099;28;20044;-80
2020/12/14 07:31:10;;;;;;;2.55;0.70;;;;;;;;;;5013739;28;20076;-80
2020/12/14 07:33:36;;;;;;;3.65;0.90;;;;;;;;;;5013962;28;20030;-80
2020/12/14 07:36:06;;;;;;;2.47;0.60;;;;;;;;;;5013998;28;20026;-80
2020/12/14 07:38:32;;;;;;;3.90;0.60;;;;;;;;;;5013418;28;20391;-79
2020/12/14 07:41:05;;;;;;;1.87;0.60;;;;;;;;;;4997076;28;20117;-80
2020/12/14 07:43:30;;;;;;;2.25;0.60;;;;;;;;;;4996970;28;20480;-80
2020/12/14 07:45:55;;;;;;;2.70;0.70;;;;;;;;;;4996990;28;20080;-80
2020/12/14 07:48:20;;;;;;;2.20;0.60;;;;;;;;;;4996958;28;20463;-80
2020/12/14 07:50:46;;;;;;;1.20;0.60;;;;;;;;;;5013076;28;20053;-80
2020/12/14 07:53:11;;;;;;;2.67;0.67;;;;;;;;;;4996749;28;20033;-80
2020/12/14 07:55:38;;;;;;;1.37;0.50;;;;;;;;;;4996809;28;20069;-80
2020/12/14 07:58:03;;;;;;;2.13;0.60;;;;;;;;;;5013096;28;20076;-80
2020/12/14 08:00:29;;;;;;;1.33;0.40;;;;;;;;;;4996563;28;20428;-80
2020/12/14 08:03:00;;;;;;;2.22;0.80;;;;;;;;;;4996699;28;20064;-80
2020/12/14 08:05:26;;;;;;;2.38;0.60;;;;;;;;;;4997386;28;20034;-80
2020/12/14 08:08:02;;;;;;;2.30;0.80;;;;;;;;;;4996836;28;20076;-80
2020/12/14 08:10:31;;;;;;;1.27;0.50;;;;;;;;;;4996780;28;20022;-80
2020/12/14 08:13:01;;;;;;;1.20;0.60;;;;;;;;;;5013288;28;20898;-80
2020/12/14 08:15:28;;;;;;;1.48;0.60;;;;;;;;;;4996398;28;20034;-80
2020/12/14 08:17:53;;;;;;;1.25;0.60;;;;;;;;;;4996650;28;20025;-81
2020/12/14 08:20:29;;;;;;;2.27;0.80;;;;;;;;;;4996589;28;20165;-80
2020/12/14 08:22:56;;;;;;;1.90;0.65;;;;;;;;;;5012676;28;20029;-80
2020/12/14 08:25:23;;;;;;;1.15;0.70;;;;;;;;;;5013837;28;20105;-80
2020/12/14 08:27:52;;;;;;;1.83;0.82;;;;;;;;;;5015001;28;20478;-80
2020/12/14 08:30:20;;;;;;;6.15;0.95;;;;;;;;;;5016400;28;20022;-80
2020/12/14 08:33:07;;;;;;;2.00;0.98;;;;;;;;;;5000084;28;20370;-81
2020/12/14 08:35:33;;;;;;;2.40;0.67;;;;;;;;;;5001839;28;20459;-81
2020/12/14 08:38:06;;;;;;;2.50;1.00;;;;;;;;;;5019687;28;20025;-82
2020/12/14 08:40:31;;;;;;;5.25;1.20;;;;;;;;;;5019706;28;20037;-80
2020/12/14 08:43:26;;;;;;;4.87;1.00;;;;;;;;;;5007908;28;20037;-80
2020/12/14 08:45:57;;;;;;;2.50;1.00;;;;;;;;;;5010388;28;20029;-80
2020/12/14 08:48:23;;;;;;;4.97;0.70;;;;;;;;;;5041587;28;20029;-80
2020/12/14 08:50:48;;;;;;;3.33;0.80;;;;;;;;;;5015662;28;20079;-81
2020/12/14 08:53:22;;;;;;;1.23;0.70;;;;;;;;;;5002922;28;20120;-80
2020/12/14 08:55:47;;;;;;;5.97;1.33;;;;;;;;;;5019114;28;20503;-81
2020/12/14 08:58:13;;;;;;;4.53;0.90;;;;;;;;;;4998953;28;20054;-77
2020/12/14 09:00:38;;;;;;;2.83;0.80;;;;;;;;;;5016564;28;20046;-78
2020/12/14 09:03:03;;;;;;;3.83;0.60;;;;;;;;;;5000157;28;20064;-78
2020/12/14 09:05:33;;;;;;;2.03;0.80;;;;;;;;;;5028658;28;20039;-77
2020/12/14 09:08:14;;;;;;;5.13;0.70;;;;;;;;;;5019168;28;20124;-78
2020/12/14 09:10:40;;;;;;;1.65;0.77;;;;;;;;;;5019354;28;20465;-78
2020/12/14 09:13:05;;;;;;;2.30;0.80;;;;;;;;;;4993543;28;20033;-78
2020/12/14 09:15:31;;;;;;;2.67;0.70;;;;;;;;;;5011300;28;20041;-77
2020/12/14 09:18:06;;;;;;;1.20;0.70;;;;;;;;;;5002772;28;20026;-78
2020/12/14 09:20:32;;;;;;;1.48;0.70;;;;;;;;;;5015930;28;20464;-77
2020/12/14 09:22:58;;;;;;;2.42;0.70;;;;;;;;;;5013066;28;20180;-77
2020/12/14 09:25:23;;;;;;;3.97;0.60;;;;;;;;;;5018777;28;20056;-79
2020/12/14 09:27:48;;;;;;;3.53;0.80;;;;;;;;;;5018106;28;20018;-78
2020/12/14 09:30:14;;;;;;;2.60;0.60;;;;;;;;;;5019912;28;20485;-78
2020/12/14 09:32:39;;;;;;;0.97;0.60;;;;;;;;;;5035438;28;20445;-79
2020/12/14 09:35:05;;;;;;;2.07;0.60;;;;;;;;;;5031429;28;20112;-77
2020/12/14 09:37:31;;;;;;;2.42;0.60;;;;;;;;;;5014930;28;20551;-78
2020/12/14 09:39:57;;;;;;;2.73;0.70;;;;;;;;;;5000335;28;20025;-77
2020/12/14 09:42:22;;;;;;;;;;;;;;;;;;4999295;28;20030;-77
2020/12/14 09:44:48;;;;;;;0.80;0.57;;;;;;;;;;5016002;28;19963;-77
2020/12/14 09:47:13;;;;;;;4.20;0.70;;;;;;;;;;4999309;28;20085;-77
2020/12/14 09:49:39;;;;;;;1.50;0.60;;;;;;;;;;4999005;28;20116;-77
2020/12/14 09:52:04;;;;;;;3.85;0.77;;;;;;;;;;5008687;28;20041;-79
2020/12/14 09:54:30;;;;;;;3.43;0.60;;;;;;;;;;5026394;28;20540;-78
2020/12/14 09:56:55;;;;;;;1.53;0.60;;;;;;;;;;5015601;28;20616;-77
2020/12/14 09:59:20;;;;;;;1.30;0.60;;;;;;;;;;5033609;28;20057;-80
2020/12/14 10:01:46;;;;;;;1.77;0.50;;;;;;;;;;5017935;28;20056;-79
2020/12/14 10:04:11;;;;;;;0.60;0.50;;;;;;;;;;5032874;28;20053;-77
2020/12/14 10:06:36;;;;;;;1.20;0.70;;;;;;;;;;4998555;28;20113;-80
2020/12/14 10:09:02;;;;;;;1.77;0.60;;;;;;;;;;5031175;28;20472;-78
2020/12/14 10:11:28;;;;;;;2.97;0.70;;;;;;;;;;4998996;28;20017;-79
2020/12/14 10:13:54;;;;;;;1.02;0.52;;;;;;;;;;5015329;28;20054;-77
2020/12/14 10:16:19;;;;;;;3.75;0.60;;;;;;;;;;4998713;28;20017;-79
2020/12/14 10:18:45;;;;;;;1.30;0.60;;;;;;;;;;5010831;28;20064;-79
2020/12/14 10:21:10;;;;;;;0.80;0.50;;;;;;;;;;5018808;28;20045;-77
2020/12/14 10:23:36;;;;;;;1.67;0.50;;;;;;;;;;5017683;28;20083;-78
2020/12/14 10:26:01;;;;;;;1.50;0.53;;;;;;;;;;4997805;28;20021;-78
2020/12/14 10:28:27;;;;;;;1.33;0.60;;;;;;;;;;5006352;28;20060;-78
2020/12/14 10:30:52;;;;;;;1.03;0.50;;;;;;;;;;4997347;28;20080;-76
2020/12/14 10:33:18;;;;;;;1.53;0.50;;;;;;;;;;5006101;28;20048;-78
2020/12/14 10:35:47;;;;;;;0.88;0.40;;;;;;;;;;5000752;28;20025;-81
2020/12/14 10:38:12;;;;;;;2.63;0.60;;;;;;;;;;5019528;28;20030;-77
2020/12/14 10:40:37;;;;;;;1.53;0.50;;;;;;;;;;4997213;28;20609;-77
2020/12/14 10:43:03;;;;;;;0.80;0.50;;;;;;;;;;5025588;28;20057;-78
2020/12/14 10:45:28;;;;;;;1.27;0.63;;;;;;;;;;5033258;28;20021;-77
2020/12/14 10:47:54;;;;;;;0.80;0.53;;;;;;;;;;5007192;28;20060;-76
2020/12/14 10:50:19;;;;;;;2.23;0.73;;;;;;;;;;4997773;28;20018;-76
2020/12/14 10:52:44;;;;;;;1.53;0.60;;;;;;;;;;4997848;28;20035;-77
2020/12/14 10:55:10;;;;;;;1.83;0.60;;;;;;;;;;5013985;28;20057;-75
2020/12/14 10:57:35;;;;;;;1.63;0.50;;;;;;;;;;5004206;28;20060;-76
2020/12/14 11:00:07;;;;;;;3.43;0.60;;;;;;;;;;5016795;28;20025;-74
2020/12/14 11:02:36;;;;;;;30.95;11.82;;;;;;;;;;5033457;23;20049;-75
2020/12/14 11:05:03;;;;;;;17.80;7.30;;;;;;;;;;5014374;28;20041;-74
2020/12/14 11:07:30;;;;;;;43.95;18.88;;;;;;;;;;5029121;28;20109;-75
2020/12/14 11:09:55;;;;;;;;;;;;;;;;;;5029473;28;20025;-75
2020/12/14 11:12:20;;;;;;;102.07;41.70;;;;;;;;;;5030099;28;20368;-77
2020/12/14 11:14:46;;;;;;;88.57;39.47;;;;;;;;;;4996349;28;20131;-74
2020/12/14 11:17:11;;;;;;;85.30;37.47;;;;;;;;;;5023987;28;20115;-75
2020/12/14 11:19:36;;;;;;;77.33;35.80;;;;;;;;;;5031915;28;20056;-75
2020/12/14 11:22:02;;;;;;;77.63;36.07;;;;;;;;;;5026677;28;20064;-75
2020/12/14 11:24:28;;;;;;;72.23;35.20;;;;;;;;;;5012714;28;20073;-75
2020/12/14 11:26:53;;;;;;;75.13;36.50;;;;;;;;;;5014138;28;20485;-75
2020/12/14 11:29:19;;;;;;;68.33;35.00;;;;;;;;;;5013918;28;20052;-74
2020/12/14 11:31:45;;;;;;;63.93;32.90;;;;;;;;;;5012788;28;20053;-75
2020/12/14 11:34:10;;;;;;;68.28;31.98;;;;;;;;;;4996239;28;20026;-74
2020/12/14 11:36:35;;;;;;;62.03;29.27;;;;;;;;;;4997186;28;20030;-74
2020/12/14 11:39:01;;;;;;;64.07;29.93;;;;;;;;;;4979058;28;20477;-75
2020/12/14 11:41:27;;;;;;;58.83;29.50;;;;;;;;;;4995846;28;20029;-75
2020/12/14 11:43:52;;;;;;;55.75;27.27;;;;;;;;;;5027731;28;20029;-75
2020/12/14 11:46:17;;;;;;;56.73;27.23;;;;;;;;;;5031989;28;20057;-75
2020/12/14 11:48:43;;;;;;;48.40;27.27;;;;;;;;;;5015591;28;20445;-74
2020/12/14 11:51:08;;;;;;;40.43;22.17;;;;;;;;;;5026410;28;20134;-75
2020/12/14 11:53:34;;;;;;;42.13;23.33;;;;;;;;;;4978348;28;20038;-75
2020/12/14 11:55:59;;;;;;;39.93;22.50;;;;;;;;;;4981719;28;20116;-75
2020/12/14 11:58:24;;;;;;;46.30;23.10;;;;;;;;;;5019687;28;20065;-75
2020/12/14 12:00:50;;;;;;;37.80;21.17;;;;;;;;;;4996163;28;20519;-75
2020/12/14 12:03:15;;;;;;;40.93;18.33;;;;;;;;;;4980573;28;20046;-75
2020/12/14 12:05:40;;;;;;;31.43;19.77;;;;;;;;;;4996430;28;20065;-74
2020/12/14 12:08:06;;;;;;;38.30;20.20;;;;;;;;;;5018234;28;20064;-75
2020/12/14 12:10:31;;;;;;;36.90;19.87;;;;;;;;;;5036117;28;20052;-75
2020/12/14 12:12:56;;;;;;;31.23;17.60;;;;;;;;;;5017987;28;20091;-75
2020/12/14 12:15:22;;;;;;;26.60;14.90;;;;;;;;;;5019171;28;20057;-75
2020/12/14 12:17:47;;;;;;;25.43;14.70;;;;;;;;;;5017251;28;20465;-74
2020/12/14 12:20:12;;;;;;;28.77;15.63;;;;;;;;;;5015863;28;20429;-74
2020/12/14 12:22:38;;;;;;;30.93;16.23;;;;;;;;;;5026936;28;20037;-74
2020/12/14 12:25:03;;;;;;;29.27;14.93;;;;;;;;;;5020711;28;20057;-74
2020/12/14 12:27:29;;;;;;;27.37;14.13;;;;;;;;;;5000692;28;20034;-75
2020/12/14 12:29:54;;;;;;;31.23;14.43;;;;;;;;;;4999941;28;20033;-75
2020/12/14 12:32:20;;;;;;;24.70;12.97;;;;;;;;;;5015672;28;20109;-75
2020/12/14 12:34:45;;;;;;;26.60;12.80;;;;;;;;;;5016267;28;20050;-74
2020/12/14 12:37:11;;;;;;;25.83;12.93;;;;;;;;;;5016955;28;20054;-74
2020/12/14 12:39:37;;;;;;;36.13;12.57;;;;;;;;;;5031948;28;20029;-75
2020/12/14 12:42:02;;;;;;;32.78;12.07;;;;;;;;;;5015908;28;20038;-75
2020/12/14 12:44:28;;;;;;;26.93;11.63;;;;;;;;;;5015616;28;20029;-74
2020/12/14 12:46:53;;;;;;;23.93;10.33;;;;;;;;;;4999586;28;20481;-74
2020/12/14 12:49:18;;;;;;;47.77;10.77;;;;;;;;;;5015507;28;20041;-75
2020/12/14 12:51:44;;;;;;;20.97;10.13;;;;;;;;;;4998943;28;20045;-75
2020/12/14 12:54:10;;;;;;;18.88;9.38;;;;;;;;;;4998982;28;20052;-75
2020/12/14 12:56:35;;;;;;;18.60;9.37;;;;;;;;;;5015248;28;20639;-73
2020/12/14 12:59:00;;;;;;;22.37;9.60;;;;;;;;;;5015895;28;20413;-75
2020/12/14 13:01:26;;;;;;;17.33;8.87;;;;;;;;;;5015031;28;20489;-73
2020/12/14 13:03:51;;;;;;;22.53;9.33;;;;;;;;;;5015090;28;20460;-75
2020/12/14 13:06:16;;;;;;;20.03;9.13;;;;;;;;;;5016347;28;20072;-75
2020/12/14 13:08:43;;;;;;;18.13;9.07;;;;;;;;;;5016250;28;20050;-77
2020/12/14 13:11:08;;;;;;;19.88;8.77;;;;;;;;;;5015600;28;20040;-74
2020/12/14 13:13:34;;;;;;;15.33;7.77;;;;;;;;;;5015012;28;20413;-74
2020/12/14 13:15:59;;;;;;;14.47;8.07;;;;;;;;;;5016127;28;20433;-74
2020/12/14 13:18:24;;;;;;;16.33;8.10;;;;;;;;;;5015946;28;20053;-74
2020/12/14 13:20:50;;;;;;;14.90;7.73;;;;;;;;;;5016002;28;20053;-73
2020/12/14 13:23:16;;;;;;;14.03;7.57;;;;;;;;;;4998354;28;20049;-74
2020/12/14 13:25:41;;;;;;;16.55;7.30;;;;;;;;;;5015965;28;20060;-74
2020/12/14 13:28:06;;;;;;;15.10;7.33;;;;;;;;;;5031260;28;20111;-74
2020/12/14 13:30:32;;;;;;;15.70;7.10;;;;;;;;;;5014581;28;20508;-73
2020/12/14 13:32:57;;;;;;;16.10;6.60;;;;;;;;;;5031263;28;20388;-73
2020/12/14 13:35:24;;;;;;;18.13;7.17;;;;;;;;;;4998173;28;20079;-75
2020/12/14 13:37:49;;;;;;;;;;;;;;;;;;5014881;28;20026;-73
2020/12/14 13:40:14;;;;;;;15.37;6.60;;;;;;;;;;5015062;28;19913;-73
2020/12/14 13:42:40;;;;;;;12.70;6.27;;;;;;;;;;5015645;28;20060;-73
2020/12/14 13:45:05;;;;;;;13.23;6.40;;;;;;;;;;4998089;28;20026;-76
2020/12/14 13:47:31;;;;;;;15.80;6.70;;;;;;;;;;5014353;28;20488;-75
2020/12/14 13:49:56;;;;;;;14.10;6.07;;;;;;;;;;5014260;28;20026;-79
2020/12/14 13:52:22;;;;;;;16.47;6.63;;;;;;;;;;5014163;28;20062;-74
2020/12/14 13:54:47;;;;;;;13.82;6.22;;;;;;;;;;5014352;28;20465;-73
2020/12/14 13:57:13;;;;;;;13.20;5.93;;;;;;;;;;5014248;28;20049;-75
2020/12/14 13:59:44;;;;;;;14.57;5.90;;;;;;;;;;5030472;28;20456;-75
2020/12/14 14:02:10;;;;;;;46.33;7.50;;;;;;;;;;5014058;28;20444;-76
2020/12/14 14:04:35;;;;;;;28.47;6.30;;;;;;;;;;4997724;28;20022;-76
2020/12/14 14:07:00;;;;;;;37.17;7.30;;;;;;;;;;4997546;28;20030;-75
2020/12/14 14:09:28;;;;;;;48.43;7.57;;;;;;;;;;5014830;28;20053;-77
2020/12/14 14:11:53;;;;;;;51.88;7.63;;;;;;;;;;5030611;28;20046;-76
2020/12/14 14:14:18;;;;;;;41.40;7.90;;;;;;;;;;4997273;28;20040;-76
2020/12/14 14:16:50;;;;;;;34.33;7.23;;;;;;;;;;5013983;28;20100;-76
2020/12/14 14:19:16;;;;;;;43.55;7.07;;;;;;;;;;5030272;28;20025;-75
2020/12/14 14:21:41;;;;;;;37.53;8.13;;;;;;;;;;5013806;28;20112;-76
2020/12/14 14:24:06;;;;;;;34.20;6.27;;;;;;;;;;4996289;28;20471;-78
2020/12/14 14:26:32;;;;;;;36.47;6.37;;;;;;;;;;5029987;28;20414;-77
2020/12/14 14:28:57;;;;;;;35.17;6.60;;;;;;;;;;5013630;28;20441;-77
2020/12/14 14:31:22;;;;;;;29.13;6.50;;;;;;;;;;4997336;28;20045;-78
2020/12/14 14:33:48;;;;;;;31.23;6.23;;;;;;;;;;5013387;28;20123;-77
2020/12/14 14:36:13;;;;;;;35.83;6.37;;;;;;;;;;5013216;28;20612;-77
2020/12/14 14:38:39;;;;;;;25.90;5.80;;;;;;;;;;5013368;28;20025;-77